Terminal Aerodrome Forecast
Issued by NWS Sterling, VA

Current Version | Previous Version | Text Only | Print | Product List | Glossary Off
Versions: 1 2 3 4 5 6 7 8 9 10 11 12

000
FTUS41 KLWX 132300
TAFMRB
TAF
KMRB 132337Z 1400/1424 32010KT P6SM FEW110
     FM140600 33004KT P6SM SKC
     FM141500 VRB03KT P6SM FEW250=

USA.gov is the U.S. government's official web portal to all federal, state and local government web resources and services.